createdAt,value
2019-03-26T00:00:26.207Z,5.47
2019-03-26T00:03:12.678Z,4.87
2019-03-26T00:06:11.987Z,5.10
2019-03-26T00:09:11.284Z,5.80
2019-03-26T00:12:10.797Z,5.70
2019-03-26T00:15:10.544Z,5.90
2019-03-26T00:18:10.513Z,5.70
2019-03-26T00:21:10.063Z,6.30
2019-03-26T00:24:10.455Z,5.77
2019-03-26T00:27:11.063Z,5.47
2019-03-26T00:30:11.369Z,5.33
2019-03-26T00:33:11.566Z,5.70
2019-03-26T00:36:11.193Z,5.90
2019-03-26T00:39:11.517Z,5.20
2019-03-26T00:42:11.549Z,5.23
2019-03-26T00:45:10.703Z,5.63
2019-03-26T00:48:10.103Z,5.20
2019-03-26T00:51:09.314Z,6.07
2019-03-26T00:54:08.486Z,5.70
2019-03-26T00:57:07.702Z,5.80
2019-03-26T01:00:06.779Z,5.43
2019-03-26T01:03:06.098Z,5.10
2019-03-26T01:06:05.361Z,5.77
2019-03-26T01:09:04.576Z,5.70
2019-03-26T01:12:04.596Z,5.13
2019-03-26T01:15:03.886Z,5.50
2019-03-26T01:18:03.323Z,4.80
2019-03-26T01:21:02.654Z,4.43
2019-03-26T01:24:02.110Z,4.90
2019-03-26T01:27:02.248Z,4.20
2019-03-26T01:30:01.478Z,4.47
2019-03-26T01:33:00.893Z,4.93
2019-03-26T01:36:00.192Z,5.00
2019-03-26T01:38:59.418Z,5.23
2019-03-26T01:41:58.763Z,5.63
2019-03-26T01:44:57.820Z,5.43
2019-03-26T01:47:57.227Z,5.30
2019-03-26T01:50:56.342Z,5.03
2019-03-26T01:53:55.827Z,5.50
2019-03-26T01:56:55.177Z,5.20
2019-03-26T01:59:54.533Z,5.27
2019-03-26T02:02:53.944Z,5.17
2019-03-26T02:05:53.914Z,5.87
2019-03-26T02:08:53.479Z,5.50
2019-03-26T02:11:52.587Z,6.37
2019-03-26T02:14:52.132Z,5.20
2019-03-26T02:17:51.211Z,6.00
2019-03-26T02:20:50.559Z,6.57
2019-03-26T02:26:58.907Z,5.93
2019-03-26T02:29:58.486Z,5.80
2019-03-26T02:32:57.943Z,6.60
2019-03-26T02:35:57.467Z,6.27
2019-03-26T02:38:56.762Z,5.80
2019-03-26T02:41:56.027Z,5.60
2019-03-26T02:44:55.515Z,5.33
2019-03-26T02:47:55.646Z,5.37
2019-03-26T02:50:55.307Z,5.47
2019-03-26T02:53:55.347Z,5.87
2019-03-26T02:56:55.373Z,5.07
2019-03-26T02:59:54.685Z,5.67
2019-03-26T03:02:54.135Z,5.27
2019-03-26T03:05:53.586Z,5.00
2019-03-26T03:08:52.996Z,5.63
2019-03-26T03:11:53.103Z,4.97
2019-03-26T03:14:53.243Z,5.83
2019-03-26T03:17:52.379Z,5.40
2019-03-26T03:20:52.702Z,5.27
2019-03-26T03:23:52.783Z,5.27
2019-03-26T03:26:52.115Z,5.90
2019-03-26T03:29:51.401Z,6.10
2019-03-26T03:32:50.768Z,5.60
2019-03-26T03:35:52.698Z,6.23
2019-03-26T03:38:51.527Z,6.90
2019-03-26T03:41:51.750Z,6.70
2019-03-26T03:44:51.124Z,5.57
2019-03-26T03:47:51.696Z,4.77
2019-03-26T03:50:51.548Z,4.80
2019-03-26T03:53:50.983Z,4.23
2019-03-26T03:56:50.296Z,4.57
2019-03-26T03:59:49.781Z,4.00
2019-03-26T04:02:49.226Z,4.40
2019-03-26T04:05:48.646Z,4.33
2019-03-26T04:08:47.972Z,4.90
2019-03-26T04:11:47.284Z,4.40
2019-03-26T04:14:46.686Z,4.33
2019-03-26T04:17:46.098Z,4.40
2019-03-26T04:20:45.607Z,4.53
2019-03-26T04:23:45.172Z,4.17
2019-03-26T04:26:45.286Z,4.67
2019-03-26T04:29:44.945Z,4.60
2019-03-26T04:32:44.283Z,3.73
2019-03-26T04:35:44.013Z,3.67
2019-03-26T04:38:44.232Z,3.93
2019-03-26T04:41:44.260Z,4.03
2019-03-26T04:44:44.222Z,3.77
2019-03-26T04:47:43.953Z,3.17
2019-03-26T04:50:43.007Z,3.50
2019-03-26T04:53:42.476Z,3.50
2019-03-26T04:56:41.719Z,4.27
2019-03-26T04:59:41.090Z,3.17
2019-03-26T05:02:40.344Z,3.77
2019-03-26T05:05:39.676Z,3.83
2019-03-26T05:08:38.946Z,4.60
2019-03-26T05:11:38.607Z,4.30
2019-03-26T05:14:38.292Z,3.53
2019-03-26T05:17:37.654Z,4.20
2019-03-26T05:20:37.251Z,4.83
2019-03-26T05:23:36.360Z,4.73
2019-03-26T05:26:35.481Z,4.50
2019-03-26T05:29:35.629Z,4.67
2019-03-26T05:32:35.727Z,4.60
2019-03-26T05:35:34.867Z,5.50
2019-03-26T05:38:34.181Z,4.50
2019-03-26T05:41:20.692Z,5.30
2019-03-26T05:44:05.784Z,4.40
2019-03-26T05:46:50.469Z,4.33
2019-03-26T05:49:35.428Z,5.40
2019-03-26T05:52:20.237Z,4.73
2019-03-26T05:55:07.206Z,4.10
2019-03-26T05:57:51.860Z,4.60
2019-03-26T06:00:36.389Z,4.03
2019-03-26T06:03:21.089Z,4.20
2019-03-26T06:06:05.511Z,4.10
2019-03-26T06:08:50.704Z,4.70
2019-03-26T06:11:35.311Z,4.57
2019-03-26T06:14:20.087Z,4.97
2019-03-26T06:17:04.804Z,4.53
2019-03-26T06:19:50.377Z,4.30
2019-03-26T06:22:35.415Z,4.00
2019-03-26T06:25:20.529Z,4.00
2019-03-26T06:28:05.730Z,4.70
2019-03-26T06:30:50.750Z,4.10
2019-03-26T06:33:35.434Z,4.03
2019-03-26T06:36:20.055Z,4.37
2019-03-26T06:39:06.304Z,4.13
2019-03-26T06:41:51.724Z,3.73
2019-03-26T06:44:36.284Z,3.93
2019-03-26T06:47:20.856Z,3.40
2019-03-26T06:50:09.875Z,3.47
2019-03-26T06:52:54.760Z,3.60
2019-03-26T06:55:39.787Z,3.50
2019-03-26T06:58:24.857Z,3.73
2019-03-26T07:01:10.045Z,3.50
2019-03-26T07:03:56.029Z,3.33
2019-03-26T07:06:40.693Z,3.60
2019-03-26T07:09:25.837Z,3.70
2019-03-26T07:12:11.009Z,3.70
2019-03-26T07:14:55.434Z,3.60
2019-03-26T07:17:40.191Z,3.43
2019-03-26T07:20:24.608Z,3.47
2019-03-26T07:23:09.035Z,3.93
2019-03-26T07:25:53.584Z,4.07
2019-03-26T07:28:38.254Z,3.23
2019-03-26T07:31:23.200Z,4.20
2019-03-26T07:34:08.240Z,3.37
2019-03-26T07:36:52.930Z,3.83
2019-03-26T07:39:39.061Z,3.40
2019-03-26T07:42:24.096Z,3.77
2019-03-26T07:45:08.799Z,3.20
2019-03-26T07:47:53.665Z,3.40
2019-03-26T07:50:38.979Z,3.27
2019-03-26T07:53:23.866Z,4.00
2019-03-26T07:56:08.688Z,3.87
2019-03-26T07:58:53.613Z,3.33
2019-03-26T08:01:38.899Z,3.53
2019-03-26T08:04:23.755Z,3.50
2019-03-26T08:07:08.540Z,4.03
2019-03-26T08:09:53.548Z,3.60
2019-03-26T08:12:38.588Z,3.80
2019-03-26T08:15:23.412Z,4.00
2019-03-26T08:18:08.351Z,4.03
2019-03-26T08:20:52.956Z,4.27
2019-03-26T08:23:38.487Z,4.60
2019-03-26T08:26:23.710Z,4.10
2019-03-26T08:29:08.601Z,4.90
2019-03-26T08:31:53.383Z,4.30
2019-03-26T08:34:38.485Z,4.50
2019-03-26T08:37:22.954Z,4.20
2019-03-26T08:40:07.999Z,3.50
2019-03-26T08:42:52.766Z,3.60
2019-03-26T08:45:37.286Z,3.73
2019-03-26T08:48:22.271Z,3.40
2019-03-26T08:51:07.204Z,3.30
2019-03-26T08:53:51.834Z,3.57
2019-03-26T08:56:36.484Z,2.93
2019-03-26T08:59:20.895Z,3.90
2019-03-26T09:02:05.559Z,3.03
2019-03-26T09:04:50.410Z,2.90
2019-03-26T09:07:35.091Z,3.10
2019-03-26T09:10:20.114Z,3.13
2019-03-26T09:13:04.759Z,2.97
2019-03-26T09:15:49.705Z,2.80
2019-03-26T09:18:34.184Z,2.90
2019-03-26T09:21:18.799Z,3.03
2019-03-26T09:24:03.631Z,3.10
2019-03-26T09:26:48.155Z,3.30
2019-03-26T09:29:32.722Z,3.37
2019-03-26T09:32:17.150Z,3.00
2019-03-26T09:35:02.755Z,3.20
2019-03-26T09:37:47.447Z,3.30
2019-03-26T09:40:32.220Z,3.07
2019-03-26T09:43:17.204Z,3.43
2019-03-26T09:46:01.976Z,3.53
2019-03-26T09:48:46.811Z,2.80
2019-03-26T09:51:31.505Z,2.60
2019-03-26T09:54:16.191Z,2.77
2019-03-26T09:57:00.550Z,2.60
2019-03-26T09:59:45.101Z,2.90
2019-03-26T10:02:29.717Z,3.80
2019-03-26T10:05:14.251Z,2.83
2019-03-26T10:07:59.315Z,2.67
2019-03-26T10:10:44.425Z,3.07
2019-03-26T10:13:29.424Z,2.70
2019-03-26T10:16:14.539Z,3.07
2019-03-26T10:18:59.221Z,2.77
2019-03-26T10:21:43.980Z,3.97
2019-03-26T10:24:28.789Z,3.27
2019-03-26T10:27:13.521Z,3.33
2019-03-26T10:29:58.495Z,3.63
2019-03-26T10:32:43.550Z,3.40
2019-03-26T10:35:28.587Z,3.23
2019-03-26T10:38:13.830Z,2.63
2019-03-26T10:40:58.698Z,3.23
2019-03-26T10:43:43.154Z,3.50
2019-03-26T10:46:28.008Z,3.00
2019-03-26T10:49:13.063Z,3.20
2019-03-26T10:51:58.265Z,3.47
2019-03-26T10:54:43.175Z,3.20
2019-03-26T10:57:27.585Z,3.27
2019-03-26T11:00:13.048Z,3.23
2019-03-26T11:02:57.931Z,2.50
2019-03-26T11:05:43.196Z,3.30
2019-03-26T11:08:27.713Z,2.97
2019-03-26T11:11:12.533Z,3.07
2019-03-26T11:13:58.851Z,2.70
2019-03-26T11:16:44.119Z,3.20
2019-03-26T11:19:29.174Z,3.00
2019-03-26T11:22:13.791Z,3.07
2019-03-26T11:24:58.949Z,2.83
2019-03-26T11:27:44.245Z,3.00
2019-03-26T11:30:29.009Z,3.77
2019-03-26T11:33:13.727Z,3.03
2019-03-26T11:35:58.635Z,2.87
2019-03-26T11:38:43.315Z,2.90
2019-03-26T11:41:28.175Z,3.23
2019-03-26T11:44:13.375Z,3.20
2019-03-26T11:46:57.931Z,2.70
2019-03-26T11:49:42.806Z,3.07
2019-03-26T11:52:27.326Z,2.67
2019-03-26T11:55:12.163Z,2.73
2019-03-26T11:57:57.253Z,2.93
2019-03-26T12:00:42.194Z,3.77
2019-03-26T12:03:26.728Z,3.40
2019-03-26T12:06:11.481Z,3.50
2019-03-26T12:08:56.421Z,3.20
2019-03-26T12:11:41.457Z,3.70
2019-03-26T12:14:26.051Z,2.90
2019-03-26T12:17:10.539Z,3.80
2019-03-26T12:19:55.674Z,3.17
2019-03-26T12:22:40.305Z,3.53
2019-03-26T12:25:24.830Z,3.50
2019-03-26T12:28:09.584Z,3.60
2019-03-26T12:30:54.599Z,3.50
2019-03-26T12:33:39.724Z,4.00
2019-03-26T12:36:24.736Z,3.53
2019-03-26T12:39:09.749Z,3.57
2019-03-26T12:41:54.324Z,4.33
2019-03-26T12:44:39.544Z,4.40
2019-03-26T12:47:24.234Z,3.60
2019-03-26T12:50:09.140Z,3.43
2019-03-26T12:52:54.004Z,3.80
2019-03-26T12:55:38.842Z,3.73
2019-03-26T12:58:31.645Z,3.80
2019-03-26T13:01:10.277Z,4.17
2019-03-26T13:03:55.411Z,4.10
2019-03-26T13:06:40.024Z,4.20
2019-03-26T13:09:24.705Z,4.07
2019-03-26T13:12:09.620Z,4.03
2019-03-26T13:14:54.282Z,4.10
2019-03-26T13:17:39.320Z,4.10
2019-03-26T13:20:24.387Z,4.53
2019-03-26T13:23:08.989Z,4.40
2019-03-26T13:25:53.470Z,4.30
2019-03-26T13:28:38.694Z,4.20
2019-03-26T13:31:23.870Z,4.33
2019-03-26T13:34:09.143Z,4.73
2019-03-26T13:36:54.080Z,4.50
2019-03-26T13:39:39.465Z,4.40
2019-03-26T13:42:24.299Z,4.27
2019-03-26T13:45:09.185Z,4.40
2019-03-26T13:47:53.950Z,3.70
2019-03-26T13:50:39.042Z,3.63
2019-03-26T13:53:24.236Z,3.47
2019-03-26T13:56:09.388Z,3.70
2019-03-26T13:58:54.351Z,3.63
2019-03-26T14:01:39.118Z,3.30
2019-03-26T14:04:24.255Z,2.40
2019-03-26T14:07:09.014Z,2.50
2019-03-26T14:09:53.779Z,2.90
2019-03-26T14:12:38.860Z,2.83
2019-03-26T14:15:23.925Z,3.40
2019-03-26T14:18:08.868Z,3.40
2019-03-26T14:20:53.578Z,3.23
2019-03-26T14:23:38.696Z,3.37
2019-03-26T14:26:24.173Z,2.90
2019-03-26T14:29:09.028Z,3.33
2019-03-26T14:31:54.009Z,3.30
2019-03-26T14:34:39.102Z,3.40
2019-03-26T14:37:24.528Z,3.20
2019-03-26T14:40:09.466Z,3.00
2019-03-26T14:42:54.314Z,3.07
2019-03-26T14:45:42.212Z,3.07
2019-03-26T14:48:26.261Z,2.90
2019-03-26T14:51:11.342Z,3.20
2019-03-26T14:53:56.233Z,3.00
2019-03-26T14:56:41.500Z,3.50
2019-03-26T14:59:26.823Z,3.47
2019-03-26T15:02:11.677Z,3.60
2019-03-26T15:04:56.797Z,4.20
2019-03-26T15:07:42.136Z,3.60
2019-03-26T15:10:27.885Z,3.37
2019-03-26T15:13:12.816Z,3.77
2019-03-26T15:15:57.944Z,3.40
2019-03-26T15:18:42.848Z,3.20
2019-03-26T15:21:27.994Z,3.37
2019-03-26T15:24:13.142Z,4.13
2019-03-26T15:26:57.911Z,3.57
2019-03-26T15:29:42.830Z,3.23
2019-03-26T15:32:28.154Z,3.03
2019-03-26T15:35:13.371Z,3.40
2019-03-26T15:37:58.298Z,3.80
2019-03-26T15:40:43.157Z,3.37
2019-03-26T15:43:28.233Z,3.17
2019-03-26T15:46:13.139Z,4.00
2019-03-26T15:48:57.733Z,3.80
2019-03-26T15:51:42.974Z,3.60
2019-03-26T15:54:27.515Z,3.93
2019-03-26T15:57:12.085Z,3.53
2019-03-26T15:59:57.257Z,3.73
2019-03-26T16:02:42.384Z,3.80
2019-03-26T16:05:27.155Z,3.63
2019-03-26T16:08:12.174Z,3.80
2019-03-26T16:10:57.049Z,4.13
2019-03-26T16:13:41.914Z,4.10
2019-03-26T16:16:26.842Z,3.77
2019-03-26T16:19:11.585Z,3.30
2019-03-26T16:21:56.513Z,3.87
2019-03-26T16:24:41.182Z,5.10
2019-03-26T16:27:26.203Z,4.53
2019-03-26T16:30:11.698Z,4.47
2019-03-26T16:32:56.528Z,4.70
2019-03-26T16:35:41.196Z,4.73
2019-03-26T16:38:25.979Z,4.00
2019-03-26T16:41:10.447Z,4.20
2019-03-26T16:43:55.254Z,4.07
2019-03-26T16:46:40.224Z,3.97
2019-03-26T16:49:25.321Z,4.13
2019-03-26T16:52:10.448Z,4.10
2019-03-26T16:54:55.676Z,4.43
2019-03-26T16:57:42.046Z,4.50
2019-03-26T17:00:30.992Z,4.57
2019-03-26T17:03:16.117Z,4.53
2019-03-26T17:06:01.269Z,4.50
2019-03-26T17:08:46.298Z,4.87
2019-03-26T17:11:31.249Z,4.20
2019-03-26T17:14:16.042Z,4.03
2019-03-26T17:17:01.100Z,4.20
2019-03-26T17:19:46.172Z,4.50
2019-03-26T17:22:31.376Z,5.10
2019-03-26T17:25:16.453Z,4.27
2019-03-26T17:28:01.439Z,4.43
2019-03-26T17:30:46.603Z,4.20
2019-03-26T17:33:31.722Z,4.03
2019-03-26T17:36:16.720Z,5.03
2019-03-26T17:39:01.887Z,6.40
2019-03-26T17:41:47.064Z,7.57
2019-03-26T17:44:31.979Z,5.43
2019-03-26T17:47:16.983Z,4.77
2019-03-26T17:50:03.400Z,4.50
2019-03-26T17:52:48.100Z,3.90
2019-03-26T17:55:33.262Z,4.50
2019-03-26T17:58:20.335Z,4.20
2019-03-26T18:01:05.303Z,4.73
2019-03-26T18:03:50.263Z,4.23
2019-03-26T18:06:35.382Z,4.00
2019-03-26T18:09:20.535Z,4.67
2019-03-26T18:12:05.640Z,4.30
2019-03-26T18:14:50.747Z,4.07
2019-03-26T18:17:36.094Z,4.00
2019-03-26T18:20:32.002Z,4.50
2019-03-26T18:23:07.606Z,5.70
2019-03-26T18:25:52.545Z,5.13
2019-03-26T18:28:38.351Z,5.03
2019-03-26T18:31:23.227Z,4.57
2019-03-26T18:34:08.184Z,4.93
2019-03-26T18:36:53.270Z,5.67
2019-03-26T18:39:38.483Z,4.90
2019-03-26T18:42:23.647Z,5.03
2019-03-26T18:45:11.661Z,4.60
2019-03-26T18:47:58.723Z,5.03
2019-03-26T18:50:43.396Z,5.37
2019-03-26T18:53:28.363Z,4.70
2019-03-26T18:56:13.498Z,4.90
2019-03-26T18:58:58.563Z,5.30
2019-03-26T19:01:43.798Z,5.30
2019-03-26T19:04:28.869Z,6.43
2019-03-26T19:07:14.109Z,7.77
2019-03-26T19:09:59.163Z,7.30
2019-03-26T19:12:56.242Z,7.07
2019-03-26T19:15:30.882Z,6.70
2019-03-26T19:18:16.067Z,5.97
2019-03-26T19:21:02.619Z,6.17
2019-03-26T19:23:47.670Z,6.10
2019-03-26T19:26:32.508Z,5.60
2019-03-26T19:29:17.902Z,5.77
2019-03-26T19:32:02.923Z,6.03
2019-03-26T19:34:48.097Z,5.90
2019-03-26T19:37:33.242Z,6.10
2019-03-26T19:40:18.288Z,5.63
2019-03-26T19:43:10.925Z,5.50
2019-03-26T19:45:49.981Z,5.40
2019-03-26T19:48:35.227Z,4.90
2019-03-26T19:51:20.338Z,5.20
2019-03-26T19:54:05.548Z,5.97
2019-03-26T19:56:50.622Z,6.03
2019-03-26T19:59:35.649Z,6.27
2019-03-26T20:02:20.944Z,6.13
2019-03-26T20:05:06.776Z,6.67
2019-03-26T20:07:51.784Z,6.83
2019-03-26T20:10:36.963Z,7.30
2019-03-26T20:13:24.741Z,7.70
2019-03-26T20:16:08.683Z,7.53
2019-03-26T20:18:54.727Z,7.60
2019-03-26T20:21:39.821Z,7.13
2019-03-26T20:24:24.957Z,7.37
2019-03-26T20:27:10.028Z,9.00
2019-03-26T20:29:54.959Z,9.50
2019-03-26T20:32:40.080Z,7.33
2019-03-26T20:35:25.293Z,8.90
2019-03-26T20:38:10.473Z,7.70
2019-03-26T20:40:55.357Z,8.00
2019-03-26T20:43:40.582Z,7.90
2019-03-26T20:46:25.565Z,8.73
2019-03-26T20:49:10.647Z,8.90
2019-03-26T20:51:55.864Z,9.07
2019-03-26T20:54:40.915Z,9.37
2019-03-26T20:57:27.091Z,9.70
2019-03-26T21:00:15.737Z,10.03
2019-03-26T21:03:00.617Z,10.70
2019-03-26T21:05:45.668Z,9.37
2019-03-26T21:08:30.892Z,8.73
2019-03-26T21:11:15.796Z,8.20
2019-03-26T21:14:01.106Z,7.50
2019-03-26T21:16:46.263Z,7.57
2019-03-26T21:19:31.130Z,7.20
2019-03-26T21:22:16.447Z,8.03
2019-03-26T21:25:01.504Z,7.83
2019-03-26T21:27:46.488Z,7.50
2019-03-26T21:30:31.757Z,7.60
2019-03-26T21:33:16.865Z,8.30
2019-03-26T21:36:01.633Z,7.67
2019-03-26T21:38:46.830Z,7.50
2019-03-26T21:41:31.809Z,7.60
2019-03-26T21:44:16.893Z,7.20
2019-03-26T21:47:01.740Z,7.40
2019-03-26T21:49:48.486Z,7.27
2019-03-26T21:52:33.664Z,7.87
2019-03-26T21:55:18.572Z,7.77
2019-03-26T21:58:03.793Z,7.40
2019-03-26T22:00:48.804Z,8.50
2019-03-26T22:03:33.837Z,7.67
2019-03-26T22:06:19.050Z,8.10
2019-03-26T22:09:05.447Z,8.00
2019-03-26T22:11:50.444Z,7.83
2019-03-26T22:14:35.576Z,9.20
2019-03-26T22:17:20.508Z,9.07
2019-03-26T22:20:05.621Z,9.40
2019-03-26T22:22:50.591Z,8.47
2019-03-26T22:25:35.532Z,9.63
2019-03-26T22:28:20.516Z,9.63
2019-03-26T22:31:05.616Z,10.33
2019-03-26T22:33:50.437Z,9.70
2019-03-26T22:36:35.218Z,9.33
2019-03-26T22:39:20.287Z,9.30
2019-03-26T22:42:05.585Z,10.50
2019-03-26T22:44:50.492Z,9.80
2019-03-26T22:47:37.277Z,9.80
2019-03-26T22:50:22.153Z,10.53
2019-03-26T22:53:06.741Z,10.47
2019-03-26T22:55:51.937Z,11.20
2019-03-26T22:58:36.442Z,10.83
2019-03-26T23:01:21.193Z,10.00
2019-03-26T23:04:06.071Z,9.20
2019-03-26T23:06:51.303Z,10.40
2019-03-26T23:09:38.918Z,10.33
2019-03-26T23:12:22.836Z,9.77
2019-03-26T23:15:16.859Z,9.93
2019-03-26T23:18:01.788Z,10.63
2019-03-26T23:20:46.702Z,11.73
2019-03-26T23:23:31.714Z,11.53
2019-03-26T23:26:16.790Z,11.60
2019-03-26T23:29:01.948Z,12.07
2019-03-26T23:31:46.971Z,11.60
2019-03-26T23:34:32.047Z,12.47
2019-03-26T23:37:16.780Z,13.33
2019-03-26T23:40:02.378Z,11.67
2019-03-26T23:42:47.406Z,11.93
2019-03-26T23:45:32.551Z,11.60
2019-03-26T23:48:17.595Z,12.03
2019-03-26T23:51:02.835Z,11.50
2019-03-26T23:53:47.800Z,11.63
2019-03-26T23:56:32.415Z,11.80
2019-03-26T23:59:17.202Z,11.33
